sensor_id;sensor_type;location;lat;lon;timestamp;P1;durP1;ratioP1;P2;durP2;ratioP2
76896;SDS011;65856;52.178;21.176;2023-08-07T00:00:42;0.50;;;0.40;;
76896;SDS011;65856;52.178;21.176;2023-08-07T00:03:07;0.40;;;0.40;;
76896;SDS011;65856;52.178;21.176;2023-08-07T00:05:33;1.20;;;0.50;;
76896;SDS011;65856;52.178;21.176;2023-08-07T00:07:58;0.50;;;0.40;;
76896;SDS011;65856;52.178;21.176;2023-08-07T00:10:24;0.30;;;0.30;;
76896;SDS011;65856;52.178;21.176;2023-08-07T00:12:51;0.80;;;0.40;;
76896;SDS011;65856;52.178;21.176;2023-08-07T00:15:16;0.50;;;0.40;;
76896;SDS011;65856;52.178;21.176;2023-08-07T00:17:42;0.70;;;0.40;;
76896;SDS011;65856;52.178;21.176;2023-08-07T00:20:08;3.50;;;0.40;;
76896;SDS011;65856;52.178;21.176;2023-08-07T00:22:33;1.20;;;0.50;;
76896;SDS011;65856;52.178;21.176;2023-08-07T00:24:59;0.40;;;0.40;;
76896;SDS011;65856;52.178;21.176;2023-08-07T00:27:25;0.40;;;0.40;;
76896;SDS011;65856;52.178;21.176;2023-08-07T00:29:50;0.40;;;0.40;;
76896;SDS011;65856;52.178;21.176;2023-08-07T00:32:16;1.60;;;0.40;;
76896;SDS011;65856;52.178;21.176;2023-08-07T00:34:42;0.40;;;0.40;;
76896;SDS011;65856;52.178;21.176;2023-08-07T00:37:07;1.80;;;0.30;;
76896;SDS011;65856;52.178;21.176;2023-08-07T00:39:33;0.70;;;0.30;;
76896;SDS011;65856;52.178;21.176;2023-08-07T00:41:58;0.50;;;0.30;;
76896;SDS011;65856;52.178;21.176;2023-08-07T00:44:24;1.00;;;0.40;;
76896;SDS011;65856;52.178;21.176;2023-08-07T00:46:49;1.20;;;0.40;;
76896;SDS011;65856;52.178;21.176;2023-08-07T00:49:15;1.50;;;0.40;;
76896;SDS011;65856;52.178;21.176;2023-08-07T00:51:43;0.40;;;0.40;;
76896;SDS011;65856;52.178;21.176;2023-08-07T00:54:10;2.50;;;0.40;;
76896;SDS011;65856;52.178;21.176;2023-08-07T00:56:43;1.80;;;0.50;;
76896;SDS011;65856;52.178;21.176;2023-08-07T00:59:09;0.40;;;0.40;;
76896;SDS011;65856;52.178;21.176;2023-08-07T01:01:35;0.50;;;0.40;;
76896;SDS011;65856;52.178;21.176;2023-08-07T01:04:01;0.70;;;0.40;;
76896;SDS011;65856;52.178;21.176;2023-08-07T01:06:27;0.50;;;0.50;;
76896;SDS011;65856;52.178;21.176;2023-08-07T01:08:52;0.40;;;0.40;;
76896;SDS011;65856;52.178;21.176;2023-08-07T01:11:34;0.60;;;0.50;;
76896;SDS011;65856;52.178;21.176;2023-08-07T01:14:19;1.40;;;0.50;;
76896;SDS011;65856;52.178;21.176;2023-08-07T01:17:04;0.70;;;0.60;;
76896;SDS011;65856;52.178;21.176;2023-08-07T01:19:34;0.50;;;0.50;;
76896;SDS011;65856;52.178;21.176;2023-08-07T01:22:06;0.60;;;0.60;;
76896;SDS011;65856;52.178;21.176;2023-08-07T01:24:42;1.20;;;0.60;;
76896;SDS011;65856;52.178;21.176;2023-08-07T01:29:51;1.80;;;0.70;;
76896;SDS011;65856;52.178;21.176;2023-08-07T01:32:44;1.60;;;0.80;;
76896;SDS011;65856;52.178;21.176;2023-08-07T01:35:16;1.60;;;0.70;;
76896;SDS011;65856;52.178;21.176;2023-08-07T01:37:46;1.30;;;0.80;;
76896;SDS011;65856;52.178;21.176;2023-08-07T01:40:13;2.10;;;0.70;;
76896;SDS011;65856;52.178;21.176;2023-08-07T01:42:40;5.50;;;1.50;;
76896;SDS011;65856;52.178;21.176;2023-08-07T01:45:06;3.10;;;0.90;;
76896;SDS011;65856;52.178;21.176;2023-08-07T01:47:32;1.20;;;0.80;;
76896;SDS011;65856;52.178;21.176;2023-08-07T01:49:57;1.10;;;0.90;;
76896;SDS011;65856;52.178;21.176;2023-08-07T01:52:23;1.10;;;0.70;;
76896;SDS011;65856;52.178;21.176;2023-08-07T01:54:48;1.70;;;0.80;;
76896;SDS011;65856;52.178;21.176;2023-08-07T01:57:14;2.20;;;0.90;;
76896;SDS011;65856;52.178;21.176;2023-08-07T01:59:39;1.40;;;0.80;;
76896;SDS011;65856;52.178;21.176;2023-08-07T02:02:05;1.20;;;1.00;;
76896;SDS011;65856;52.178;21.176;2023-08-07T02:04:30;0.70;;;0.70;;
76896;SDS011;65856;52.178;21.176;2023-08-07T02:06:56;1.70;;;1.00;;
76896;SDS011;65856;52.178;21.176;2023-08-07T02:09:22;3.00;;;0.90;;
76896;SDS011;65856;52.178;21.176;2023-08-07T02:11:48;1.70;;;0.90;;
76896;SDS011;65856;52.178;21.176;2023-08-07T02:14:13;1.50;;;0.90;;
76896;SDS011;65856;52.178;21.176;2023-08-07T02:16:39;2.70;;;0.90;;
76896;SDS011;65856;52.178;21.176;2023-08-07T02:19:04;1.50;;;1.20;;
76896;SDS011;65856;52.178;21.176;2023-08-07T02:21:31;2.30;;;1.00;;
76896;SDS011;65856;52.178;21.176;2023-08-07T02:23:57;1.20;;;1.00;;
76896;SDS011;65856;52.178;21.176;2023-08-07T02:26:22;1.00;;;0.80;;
76896;SDS011;65856;52.178;21.176;2023-08-07T02:28:48;1.60;;;0.90;;
76896;SDS011;65856;52.178;21.176;2023-08-07T02:31:13;1.10;;;0.80;;
76896;SDS011;65856;52.178;21.176;2023-08-07T02:33:39;1.00;;;0.70;;
76896;SDS011;65856;52.178;21.176;2023-08-07T02:36:06;1.00;;;0.90;;
76896;SDS011;65856;52.178;21.176;2023-08-07T02:38:32;1.40;;;0.80;;
76896;SDS011;65856;52.178;21.176;2023-08-07T02:40:58;1.60;;;1.10;;
76896;SDS011;65856;52.178;21.176;2023-08-07T02:43:23;1.20;;;0.70;;
76896;SDS011;65856;52.178;21.176;2023-08-07T02:45:49;1.30;;;1.00;;
76896;SDS011;65856;52.178;21.176;2023-08-07T02:48:14;1.20;;;0.80;;
76896;SDS011;65856;52.178;21.176;2023-08-07T02:50:40;1.20;;;0.80;;
76896;SDS011;65856;52.178;21.176;2023-08-07T02:53:05;1.40;;;0.80;;
76896;SDS011;65856;52.178;21.176;2023-08-07T02:55:31;1.40;;;0.80;;
76896;SDS011;65856;52.178;21.176;2023-08-07T02:57:56;1.50;;;0.90;;
76896;SDS011;65856;52.178;21.176;2023-08-07T03:00:22;2.10;;;1.00;;
76896;SDS011;65856;52.178;21.176;2023-08-07T03:02:47;1.90;;;0.90;;
76896;SDS011;65856;52.178;21.176;2023-08-07T03:05:13;1.60;;;0.80;;
76896;SDS011;65856;52.178;21.176;2023-08-07T03:07:38;1.70;;;0.80;;
76896;SDS011;65856;52.178;21.176;2023-08-07T03:10:04;1.80;;;0.90;;
76896;SDS011;65856;52.178;21.176;2023-08-07T03:12:31;1.70;;;0.80;;
76896;SDS011;65856;52.178;21.176;2023-08-07T03:14:57;1.50;;;0.80;;
76896;SDS011;65856;52.178;21.176;2023-08-07T03:17:22;1.80;;;0.80;;
76896;SDS011;65856;52.178;21.176;2023-08-07T03:19:48;0.80;;;0.80;;
76896;SDS011;65856;52.178;21.176;2023-08-07T03:22:14;1.10;;;0.80;;
76896;SDS011;65856;52.178;21.176;2023-08-07T03:24:40;3.70;;;0.80;;
76896;SDS011;65856;52.178;21.176;2023-08-07T03:27:05;0.90;;;0.70;;
76896;SDS011;65856;52.178;21.176;2023-08-07T03:29:31;3.00;;;0.70;;
76896;SDS011;65856;52.178;21.176;2023-08-07T03:31:56;1.30;;;1.00;;
76896;SDS011;65856;52.178;21.176;2023-08-07T03:34:22;1.60;;;0.90;;
76896;SDS011;65856;52.178;21.176;2023-08-07T03:36:47;1.10;;;0.90;;
76896;SDS011;65856;52.178;21.176;2023-08-07T03:39:13;1.00;;;0.90;;
76896;SDS011;65856;52.178;21.176;2023-08-07T03:41:39;1.10;;;1.00;;
76896;SDS011;65856;52.178;21.176;2023-08-07T03:44:04;2.80;;;1.00;;
76896;SDS011;65856;52.178;21.176;2023-08-07T03:46:30;1.80;;;1.10;;
76896;SDS011;65856;52.178;21.176;2023-08-07T03:48:56;1.60;;;1.00;;
76896;SDS011;65856;52.178;21.176;2023-08-07T03:51:21;4.00;;;1.00;;
76896;SDS011;65856;52.178;21.176;2023-08-07T03:53:47;1.40;;;1.00;;
76896;SDS011;65856;52.178;21.176;2023-08-07T03:56:12;1.50;;;1.00;;
76896;SDS011;65856;52.178;21.176;2023-08-07T03:58:38;1.20;;;1.10;;
76896;SDS011;65856;52.178;21.176;2023-08-07T04:01:04;1.90;;;1.10;;
76896;SDS011;65856;52.178;21.176;2023-08-07T04:03:29;1.10;;;1.00;;
76896;SDS011;65856;52.178;21.176;2023-08-07T04:05:55;2.50;;;1.20;;
76896;SDS011;65856;52.178;21.176;2023-08-07T04:08:22;1.50;;;1.10;;
76896;SDS011;65856;52.178;21.176;2023-08-07T04:11:01;3.20;;;1.10;;
76896;SDS011;65856;52.178;21.176;2023-08-07T04:13:29;1.50;;;1.30;;
76896;SDS011;65856;52.178;21.176;2023-08-07T04:15:55;1.80;;;1.20;;
76896;SDS011;65856;52.178;21.176;2023-08-07T04:18:21;1.30;;;1.20;;
76896;SDS011;65856;52.178;21.176;2023-08-07T04:20:54;2.60;;;1.30;;
76896;SDS011;65856;52.178;21.176;2023-08-07T04:23:21;4.70;;;1.30;;
76896;SDS011;65856;52.178;21.176;2023-08-07T04:25:47;1.20;;;1.10;;
76896;SDS011;65856;52.178;21.176;2023-08-07T04:28:13;1.70;;;1.20;;
76896;SDS011;65856;52.178;21.176;2023-08-07T04:30:39;4.00;;;1.30;;
76896;SDS011;65856;52.178;21.176;2023-08-07T04:33:06;2.20;;;1.20;;
76896;SDS011;65856;52.178;21.176;2023-08-07T04:35:33;1.60;;;1.20;;
76896;SDS011;65856;52.178;21.176;2023-08-07T04:37:59;2.50;;;1.00;;
76896;SDS011;65856;52.178;21.176;2023-08-07T04:40:26;2.40;;;1.10;;
76896;SDS011;65856;52.178;21.176;2023-08-07T04:42:51;2.60;;;1.30;;
76896;SDS011;65856;52.178;21.176;2023-08-07T04:45:17;3.00;;;1.20;;
76896;SDS011;65856;52.178;21.176;2023-08-07T04:47:43;2.80;;;1.20;;
76896;SDS011;65856;52.178;21.176;2023-08-07T04:50:08;2.10;;;1.10;;
76896;SDS011;65856;52.178;21.176;2023-08-07T04:52:35;1.30;;;1.00;;
76896;SDS011;65856;52.178;21.176;2023-08-07T04:55:01;1.10;;;1.00;;
76896;SDS011;65856;52.178;21.176;2023-08-07T04:57:27;1.10;;;1.00;;
76896;SDS011;65856;52.178;21.176;2023-08-07T04:59:52;1.20;;;1.00;;
76896;SDS011;65856;52.178;21.176;2023-08-07T05:02:19;2.20;;;1.00;;
76896;SDS011;65856;52.178;21.176;2023-08-07T05:04:44;1.50;;;1.00;;
76896;SDS011;65856;52.178;21.176;2023-08-07T05:07:11;1.60;;;1.00;;
76896;SDS011;65856;52.178;21.176;2023-08-07T05:09:37;1.50;;;1.00;;
76896;SDS011;65856;52.178;21.176;2023-08-07T05:12:04;7.30;;;1.00;;
76896;SDS011;65856;52.178;21.176;2023-08-07T05:14:32;2.30;;;0.90;;
76896;SDS011;65856;52.178;21.176;2023-08-07T05:16:58;1.50;;;1.00;;
76896;SDS011;65856;52.178;21.176;2023-08-07T05:19:27;1.30;;;0.90;;
76896;SDS011;65856;52.178;21.176;2023-08-07T05:21:52;2.40;;;0.90;;
76896;SDS011;65856;52.178;21.176;2023-08-07T05:24:18;1.30;;;1.20;;
76896;SDS011;65856;52.178;21.176;2023-08-07T05:26:43;1.40;;;1.00;;
76896;SDS011;65856;52.178;21.176;2023-08-07T05:29:09;1.50;;;0.90;;
76896;SDS011;65856;52.178;21.176;2023-08-07T05:31:35;1.40;;;1.10;;
76896;SDS011;65856;52.178;21.176;2023-08-07T05:34:01;1.80;;;0.90;;
76896;SDS011;65856;52.178;21.176;2023-08-07T05:36:27;2.10;;;1.30;;
76896;SDS011;65856;52.178;21.176;2023-08-07T05:38:53;1.00;;;0.90;;
76896;SDS011;65856;52.178;21.176;2023-08-07T05:41:18;1.00;;;0.90;;
76896;SDS011;65856;52.178;21.176;2023-08-07T05:43:45;1.20;;;1.00;;
76896;SDS011;65856;52.178;21.176;2023-08-07T05:46:11;2.00;;;1.00;;
76896;SDS011;65856;52.178;21.176;2023-08-07T05:48:36;2.60;;;1.20;;
76896;SDS011;65856;52.178;21.176;2023-08-07T05:51:02;1.90;;;1.10;;
76896;SDS011;65856;52.178;21.176;2023-08-07T05:53:27;2.40;;;1.10;;
76896;SDS011;65856;52.178;21.176;2023-08-07T05:55:52;1.50;;;1.10;;
76896;SDS011;65856;52.178;21.176;2023-08-07T05:58:18;2.70;;;1.00;;
76896;SDS011;65856;52.178;21.176;2023-08-07T06:00:44;1.80;;;1.10;;
76896;SDS011;65856;52.178;21.176;2023-08-07T06:03:09;1.30;;;1.20;;
76896;SDS011;65856;52.178;21.176;2023-08-07T06:05:35;2.90;;;1.10;;
76896;SDS011;65856;52.178;21.176;2023-08-07T06:08:00;1.40;;;1.10;;
76896;SDS011;65856;52.178;21.176;2023-08-07T06:10:26;1.90;;;1.20;;
76896;SDS011;65856;52.178;21.176;2023-08-07T06:12:52;2.60;;;1.50;;
76896;SDS011;65856;52.178;21.176;2023-08-07T06:15:18;1.70;;;1.30;;
76896;SDS011;65856;52.178;21.176;2023-08-07T06:17:45;1.90;;;1.60;;
76896;SDS011;65856;52.178;21.176;2023-08-07T06:20:11;5.30;;;1.70;;
76896;SDS011;65856;52.178;21.176;2023-08-07T06:22:39;3.00;;;1.30;;
76896;SDS011;65856;52.178;21.176;2023-08-07T06:25:06;2.10;;;1.50;;
76896;SDS011;65856;52.178;21.176;2023-08-07T06:27:32;2.10;;;1.50;;
76896;SDS011;65856;52.178;21.176;2023-08-07T06:29:58;2.90;;;1.30;;
76896;SDS011;65856;52.178;21.176;2023-08-07T06:32:25;2.00;;;1.40;;
76896;SDS011;65856;52.178;21.176;2023-08-07T06:34:52;2.70;;;1.40;;
76896;SDS011;65856;52.178;21.176;2023-08-07T06:37:18;1.80;;;1.30;;
76896;SDS011;65856;52.178;21.176;2023-08-07T06:39:44;6.00;;;1.30;;
76896;SDS011;65856;52.178;21.176;2023-08-07T06:42:11;1.40;;;1.30;;
76896;SDS011;65856;52.178;21.176;2023-08-07T06:44:37;1.90;;;1.50;;
76896;SDS011;65856;52.178;21.176;2023-08-07T06:47:03;2.00;;;1.40;;
76896;SDS011;65856;52.178;21.176;2023-08-07T06:49:29;2.20;;;1.50;;
76896;SDS011;65856;52.178;21.176;2023-08-07T06:51:56;3.50;;;1.40;;
76896;SDS011;65856;52.178;21.176;2023-08-07T06:54:23;2.70;;;1.50;;
76896;SDS011;65856;52.178;21.176;2023-08-07T06:56:48;1.60;;;1.30;;
76896;SDS011;65856;52.178;21.176;2023-08-07T06:59:14;2.90;;;1.40;;
76896;SDS011;65856;52.178;21.176;2023-08-07T07:01:39;2.10;;;1.30;;
76896;SDS011;65856;52.178;21.176;2023-08-07T07:04:05;3.30;;;1.40;;
76896;SDS011;65856;52.178;21.176;2023-08-07T07:06:30;3.40;;;1.10;;
76896;SDS011;65856;52.178;21.176;2023-08-07T07:08:56;2.40;;;1.10;;
76896;SDS011;65856;52.178;21.176;2023-08-07T07:11:22;1.50;;;1.10;;
76896;SDS011;65856;52.178;21.176;2023-08-07T07:13:49;3.60;;;1.10;;
76896;SDS011;65856;52.178;21.176;2023-08-07T07:16:20;2.80;;;1.20;;
76896;SDS011;65856;52.178;21.176;2023-08-07T07:18:50;2.70;;;1.30;;
76896;SDS011;65856;52.178;21.176;2023-08-07T07:21:16;2.10;;;1.20;;
76896;SDS011;65856;52.178;21.176;2023-08-07T07:23:42;2.00;;;1.20;;
76896;SDS011;65856;52.178;21.176;2023-08-07T07:26:08;2.00;;;1.10;;
76896;SDS011;65856;52.178;21.176;2023-08-07T07:28:33;1.40;;;0.90;;
76896;SDS011;65856;52.178;21.176;2023-08-07T07:30:59;3.50;;;1.20;;
76896;SDS011;65856;52.178;21.176;2023-08-07T07:33:24;3.40;;;1.50;;
76896;SDS011;65856;52.178;21.176;2023-08-07T07:35:50;2.10;;;1.10;;
76896;SDS011;65856;52.178;21.176;2023-08-07T07:38:15;1.70;;;1.20;;
76896;SDS011;65856;52.178;21.176;2023-08-07T07:40:41;2.10;;;1.00;;
76896;SDS011;65856;52.178;21.176;2023-08-07T07:43:07;2.10;;;1.10;;
76896;SDS011;65856;52.178;21.176;2023-08-07T07:45:33;3.20;;;1.10;;
76896;SDS011;65856;52.178;21.176;2023-08-07T07:48:01;2.30;;;1.10;;
76896;SDS011;65856;52.178;21.176;2023-08-07T07:50:28;1.40;;;1.00;;
76896;SDS011;65856;52.178;21.176;2023-08-07T07:52:54;3.40;;;1.10;;
76896;SDS011;65856;52.178;21.176;2023-08-07T07:55:19;4.90;;;1.20;;
76896;SDS011;65856;52.178;21.176;2023-08-07T07:57:45;1.40;;;1.20;;
76896;SDS011;65856;52.178;21.176;2023-08-07T08:00:11;1.40;;;1.10;;
76896;SDS011;65856;52.178;21.176;2023-08-07T08:02:39;2.80;;;1.50;;
76896;SDS011;65856;52.178;21.176;2023-08-07T08:05:07;4.40;;;1.70;;
76896;SDS011;65856;52.178;21.176;2023-08-07T08:07:33;2.80;;;1.30;;
76896;SDS011;65856;52.178;21.176;2023-08-07T08:10:00;2.10;;;1.30;;
76896;SDS011;65856;52.178;21.176;2023-08-07T08:12:26;3.10;;;1.30;;
76896;SDS011;65856;52.178;21.176;2023-08-07T08:14:51;1.90;;;1.30;;
76896;SDS011;65856;52.178;21.176;2023-08-07T08:17:17;2.20;;;1.40;;
76896;SDS011;65856;52.178;21.176;2023-08-07T08:19:43;1.40;;;1.20;;
76896;SDS011;65856;52.178;21.176;2023-08-07T08:22:08;2.40;;;1.30;;
76896;SDS011;65856;52.178;21.176;2023-08-07T08:24:34;1.40;;;1.00;;
76896;SDS011;65856;52.178;21.176;2023-08-07T08:27:00;3.20;;;1.30;;
76896;SDS011;65856;52.178;21.176;2023-08-07T08:29:26;2.10;;;1.20;;
76896;SDS011;65856;52.178;21.176;2023-08-07T08:31:53;1.20;;;1.10;;
76896;SDS011;65856;52.178;21.176;2023-08-07T08:34:20;2.90;;;1.40;;
76896;SDS011;65856;52.178;21.176;2023-08-07T08:36:47;2.20;;;1.10;;
76896;SDS011;65856;52.178;21.176;2023-08-07T08:39:13;2.30;;;1.10;;
76896;SDS011;65856;52.178;21.176;2023-08-07T08:41:39;2.00;;;1.20;;
76896;SDS011;65856;52.178;21.176;2023-08-07T08:44:14;2.40;;;1.10;;
76896;SDS011;65856;52.178;21.176;2023-08-07T08:46:46;3.80;;;1.30;;
76896;SDS011;65856;52.178;21.176;2023-08-07T08:49:22;1.40;;;1.30;;
76896;SDS011;65856;52.178;21.176;2023-08-07T08:51:53;2.40;;;1.30;;
76896;SDS011;65856;52.178;21.176;2023-08-07T08:54:19;1.60;;;1.10;;
76896;SDS011;65856;52.178;21.176;2023-08-07T08:56:45;2.60;;;1.40;;
76896;SDS011;65856;52.178;21.176;2023-08-07T08:59:11;2.60;;;1.30;;
76896;SDS011;65856;52.178;21.176;2023-08-07T09:01:38;2.40;;;1.30;;
76896;SDS011;65856;52.178;21.176;2023-08-07T09:04:03;7.30;;;1.40;;
76896;SDS011;65856;52.178;21.176;2023-08-07T09:06:31;1.70;;;1.30;;
76896;SDS011;65856;52.178;21.176;2023-08-07T09:08:58;3.00;;;1.10;;
76896;SDS011;65856;52.178;21.176;2023-08-07T09:11:25;1.50;;;1.00;;
76896;SDS011;65856;52.178;21.176;2023-08-07T09:13:53;4.70;;;1.20;;
76896;SDS011;65856;52.178;21.176;2023-08-07T09:16:21;3.10;;;1.20;;
76896;SDS011;65856;52.178;21.176;2023-08-07T09:18:50;1.60;;;1.00;;
76896;SDS011;65856;52.178;21.176;2023-08-07T09:21:16;2.80;;;1.40;;
76896;SDS011;65856;52.178;21.176;2023-08-07T09:23:43;2.10;;;1.10;;
76896;SDS011;65856;52.178;21.176;2023-08-07T09:26:10;1.80;;;1.10;;
76896;SDS011;65856;52.178;21.176;2023-08-07T09:28:36;2.90;;;1.00;;
76896;SDS011;65856;52.178;21.176;2023-08-07T09:31:01;4.20;;;1.30;;
76896;SDS011;65856;52.178;21.176;2023-08-07T09:33:28;3.30;;;1.00;;
76896;SDS011;65856;52.178;21.176;2023-08-07T09:36:00;2.00;;;1.10;;
76896;SDS011;65856;52.178;21.176;2023-08-07T09:38:30;1.30;;;1.00;;
76896;SDS011;65856;52.178;21.176;2023-08-07T09:43:28;1.50;;;0.80;;
76896;SDS011;65856;52.178;21.176;2023-08-07T09:46:07;2.10;;;0.90;;
76896;SDS011;65856;52.178;21.176;2023-08-07T09:48:40;3.70;;;0.90;;
76896;SDS011;65856;52.178;21.176;2023-08-07T09:51:08;1.90;;;1.10;;
76896;SDS011;65856;52.178;21.176;2023-08-07T09:53:34;2.00;;;1.00;;
76896;SDS011;65856;52.178;21.176;2023-08-07T09:56:00;1.60;;;1.00;;
76896;SDS011;65856;52.178;21.176;2023-08-07T09:58:26;13.10;;;1.10;;
76896;SDS011;65856;52.178;21.176;2023-08-07T10:00:54;3.20;;;0.90;;
76896;SDS011;65856;52.178;21.176;2023-08-07T10:03:24;2.20;;;0.90;;
76896;SDS011;65856;52.178;21.176;2023-08-07T10:05:50;1.10;;;0.90;;
76896;SDS011;65856;52.178;21.176;2023-08-07T10:08:18;2.50;;;0.90;;
76896;SDS011;65856;52.178;21.176;2023-08-07T10:10:44;1.90;;;0.80;;
76896;SDS011;65856;52.178;21.176;2023-08-07T10:13:12;3.60;;;0.80;;
76896;SDS011;65856;52.178;21.176;2023-08-07T10:15:39;2.50;;;0.80;;
76896;SDS011;65856;52.178;21.176;2023-08-07T10:18:07;1.90;;;0.80;;
76896;SDS011;65856;52.178;21.176;2023-08-07T10:20:35;3.10;;;0.90;;
76896;SDS011;65856;52.178;21.176;2023-08-07T10:23:09;2.80;;;1.00;;
76896;SDS011;65856;52.178;21.176;2023-08-07T10:25:41;5.90;;;1.10;;
76896;SDS011;65856;52.178;21.176;2023-08-07T10:28:13;1.90;;;0.90;;
76896;SDS011;65856;52.178;21.176;2023-08-07T10:30:42;2.10;;;0.90;;
76896;SDS011;65856;52.178;21.176;2023-08-07T10:33:12;1.50;;;1.00;;
76896;SDS011;65856;52.178;21.176;2023-08-07T10:35:45;2.20;;;1.10;;
76896;SDS011;65856;52.178;21.176;2023-08-07T10:38:13;1.30;;;0.90;;
76896;SDS011;65856;52.178;21.176;2023-08-07T10:41:12;1.20;;;0.80;;
76896;SDS011;65856;52.178;21.176;2023-08-07T10:43:40;2.10;;;0.90;;
76896;SDS011;65856;52.178;21.176;2023-08-07T10:46:12;1.80;;;0.90;;
76896;SDS011;65856;52.178;21.176;2023-08-07T10:48:46;1.20;;;1.00;;
76896;SDS011;65856;52.178;21.176;2023-08-07T10:51:17;1.50;;;1.00;;
76896;SDS011;65856;52.178;21.176;2023-08-07T10:53:45;2.30;;;1.10;;
76896;SDS011;65856;52.178;21.176;2023-08-07T10:56:18;2.50;;;1.10;;
76896;SDS011;65856;52.178;21.176;2023-08-07T10:58:55;4.20;;;1.00;;
76896;SDS011;65856;52.178;21.176;2023-08-07T11:03:58;5.30;;;1.10;;
76896;SDS011;65856;52.178;21.176;2023-08-07T11:06:29;1.70;;;1.10;;
76896;SDS011;65856;52.178;21.176;2023-08-07T11:08:57;1.90;;;1.20;;
76896;SDS011;65856;52.178;21.176;2023-08-07T11:11:23;4.40;;;1.10;;
76896;SDS011;65856;52.178;21.176;2023-08-07T11:13:49;3.30;;;1.00;;
76896;SDS011;65856;52.178;21.176;2023-08-07T11:16:16;1.40;;;1.10;;
76896;SDS011;65856;52.178;21.176;2023-08-07T11:18:46;1.60;;;1.00;;
76896;SDS011;65856;52.178;21.176;2023-08-07T11:21:13;3.00;;;1.00;;
76896;SDS011;65856;52.178;21.176;2023-08-07T11:23:40;1.20;;;0.80;;
76896;SDS011;65856;52.178;21.176;2023-08-07T11:26:07;1.50;;;1.00;;
76896;SDS011;65856;52.178;21.176;2023-08-07T11:28:35;1.30;;;0.80;;
76896;SDS011;65856;52.178;21.176;2023-08-07T11:31:01;1.50;;;1.00;;
76896;SDS011;65856;52.178;21.176;2023-08-07T11:33:28;1.30;;;0.80;;
76896;SDS011;65856;52.178;21.176;2023-08-07T11:35:54;3.10;;;0.90;;
76896;SDS011;65856;52.178;21.176;2023-08-07T11:38:42;4.10;;;1.00;;
76896;SDS011;65856;52.178;21.176;2023-08-07T11:41:10;1.30;;;0.80;;
76896;SDS011;65856;52.178;21.176;2023-08-07T11:43:40;2.00;;;1.00;;
76896;SDS011;65856;52.178;21.176;2023-08-07T11:46:08;1.90;;;1.10;;
76896;SDS011;65856;52.178;21.176;2023-08-07T11:48:36;1.40;;;1.00;;
76896;SDS011;65856;52.178;21.176;2023-08-07T11:51:05;3.70;;;1.00;;
76896;SDS011;65856;52.178;21.176;2023-08-07T11:53:34;1.20;;;1.00;;
76896;SDS011;65856;52.178;21.176;2023-08-07T11:56:07;1.50;;;1.00;;
76896;SDS011;65856;52.178;21.176;2023-08-07T11:58:36;4.00;;;1.00;;
76896;SDS011;65856;52.178;21.176;2023-08-07T12:03:58;2.40;;;1.00;;
76896;SDS011;65856;52.178;21.176;2023-08-07T12:06:35;2.20;;;1.00;;
76896;SDS011;65856;52.178;21.176;2023-08-07T12:09:02;2.70;;;1.10;;
76896;SDS011;65856;52.178;21.176;2023-08-07T12:11:29;1.80;;;1.30;;
76896;SDS011;65856;52.178;21.176;2023-08-07T12:13:55;2.60;;;1.00;;
76896;SDS011;65856;52.178;21.176;2023-08-07T12:16:21;6.90;;;1.40;;
76896;SDS011;65856;52.178;21.176;2023-08-07T12:18:49;2.60;;;1.20;;
76896;SDS011;65856;52.178;21.176;2023-08-07T12:21:21;3.00;;;1.20;;
76896;SDS011;65856;52.178;21.176;2023-08-07T12:23:49;3.00;;;1.10;;
76896;SDS011;65856;52.178;21.176;2023-08-07T12:26:16;2.10;;;1.20;;
76896;SDS011;65856;52.178;21.176;2023-08-07T12:28:43;2.30;;;1.20;;
76896;SDS011;65856;52.178;21.176;2023-08-07T12:31:08;1.50;;;1.10;;
76896;SDS011;65856;52.178;21.176;2023-08-07T12:33:34;2.20;;;1.00;;
76896;SDS011;65856;52.178;21.176;2023-08-07T12:36:00;3.30;;;1.00;;
76896;SDS011;65856;52.178;21.176;2023-08-07T12:38:28;3.60;;;1.10;;
76896;SDS011;65856;52.178;21.176;2023-08-07T12:40:54;3.20;;;1.20;;
76896;SDS011;65856;52.178;21.176;2023-08-07T12:43:19;3.10;;;1.20;;
76896;SDS011;65856;52.178;21.176;2023-08-07T12:45:45;3.20;;;1.40;;
76896;SDS011;65856;52.178;21.176;2023-08-07T12:48:11;3.10;;;1.10;;
76896;SDS011;65856;52.178;21.176;2023-08-07T12:50:37;3.20;;;1.20;;
76896;SDS011;65856;52.178;21.176;2023-08-07T12:53:03;2.90;;;0.90;;
76896;SDS011;65856;52.178;21.176;2023-08-07T12:55:29;3.10;;;1.30;;
76896;SDS011;65856;52.178;21.176;2023-08-07T12:57:55;2.90;;;1.40;;
76896;SDS011;65856;52.178;21.176;2023-08-07T13:00:22;3.40;;;1.10;;
76896;SDS011;65856;52.178;21.176;2023-08-07T13:02:50;2.10;;;1.10;;
76896;SDS011;65856;52.178;21.176;2023-08-07T13:05:17;3.10;;;1.10;;
76896;SDS011;65856;52.178;21.176;2023-08-07T13:07:45;1.90;;;1.40;;
76896;SDS011;65856;52.178;21.176;2023-08-07T13:10:13;2.20;;;1.10;;
76896;SDS011;65856;52.178;21.176;2023-08-07T13:12:42;4.00;;;1.10;;
76896;SDS011;65856;52.178;21.176;2023-08-07T13:15:13;1.40;;;1.10;;
76896;SDS011;65856;52.178;21.176;2023-08-07T13:17:41;3.00;;;1.20;;
76896;SDS011;65856;52.178;21.176;2023-08-07T13:20:09;2.00;;;1.30;;
76896;SDS011;65856;52.178;21.176;2023-08-07T13:22:39;2.30;;;1.20;;
76896;SDS011;65856;52.178;21.176;2023-08-07T13:25:07;3.20;;;1.20;;
76896;SDS011;65856;52.178;21.176;2023-08-07T13:27:34;1.70;;;1.20;;
76896;SDS011;65856;52.178;21.176;2023-08-07T13:30:01;5.60;;;1.10;;
76896;SDS011;65856;52.178;21.176;2023-08-07T13:32:28;1.40;;;1.10;;
76896;SDS011;65856;52.178;21.176;2023-08-07T13:34:54;4.80;;;1.20;;
76896;SDS011;65856;52.178;21.176;2023-08-07T13:37:20;2.40;;;1.20;;
76896;SDS011;65856;52.178;21.176;2023-08-07T13:39:46;1.60;;;1.30;;
76896;SDS011;65856;52.178;21.176;2023-08-07T13:42:14;2.70;;;1.50;;
76896;SDS011;65856;52.178;21.176;2023-08-07T13:44:41;4.10;;;1.50;;
76896;SDS011;65856;52.178;21.176;2023-08-07T13:47:06;2.20;;;1.20;;
76896;SDS011;65856;52.178;21.176;2023-08-07T13:49:33;3.70;;;1.20;;
76896;SDS011;65856;52.178;21.176;2023-08-07T13:51:59;1.90;;;1.30;;
76896;SDS011;65856;52.178;21.176;2023-08-07T13:54:25;1.90;;;1.40;;
76896;SDS011;65856;52.178;21.176;2023-08-07T13:56:50;2.00;;;1.30;;
76896;SDS011;65856;52.178;21.176;2023-08-07T13:59:16;3.50;;;1.30;;
76896;SDS011;65856;52.178;21.176;2023-08-07T14:01:42;3.20;;;1.50;;
76896;SDS011;65856;52.178;21.176;2023-08-07T14:04:07;2.90;;;1.10;;
76896;SDS011;65856;52.178;21.176;2023-08-07T14:06:33;2.40;;;1.30;;
76896;SDS011;65856;52.178;21.176;2023-08-07T14:08:58;2.50;;;1.40;;
76896;SDS011;65856;52.178;21.176;2023-08-07T14:11:24;2.40;;;1.40;;
76896;SDS011;65856;52.178;21.176;2023-08-07T14:13:55;4.10;;;1.40;;
76896;SDS011;65856;52.178;21.176;2023-08-07T14:16:25;3.30;;;1.60;;
76896;SDS011;65856;52.178;21.176;2023-08-07T14:18:51;3.80;;;1.50;;
76896;SDS011;65856;52.178;21.176;2023-08-07T14:21:16;3.10;;;1.50;;
76896;SDS011;65856;52.178;21.176;2023-08-07T14:23:42;2.30;;;1.40;;
76896;SDS011;65856;52.178;21.176;2023-08-07T14:26:10;3.70;;;1.30;;
76896;SDS011;65856;52.178;21.176;2023-08-07T14:28:37;2.90;;;1.50;;
76896;SDS011;65856;52.178;21.176;2023-08-07T14:31:06;3.40;;;1.30;;
76896;SDS011;65856;52.178;21.176;2023-08-07T14:33:33;2.30;;;1.40;;
76896;SDS011;65856;52.178;21.176;2023-08-07T14:35:59;5.30;;;1.30;;
76896;SDS011;65856;52.178;21.176;2023-08-07T14:38:25;2.30;;;1.50;;
76896;SDS011;65856;52.178;21.176;2023-08-07T14:40:51;7.40;;;1.40;;
76896;SDS011;65856;52.178;21.176;2023-08-07T14:43:17;2.10;;;1.40;;